Time;durP1;ratioP1;P1;durP2;ratioP2;P2;SDS_P1;SDS_P2;PMS_P1;PMS_P2;Temp;Humidity;BMP_temperature;BMP_pressure;BME280_temperature;BME280_humidity;BME280_pressure;Samples;Min_cycle;Max_cycle;Signal;HPM_P1;HPM_P2
2022/05/28 03:01:33;;;;;;;1.10;0.25;;;14.70;91.90;;;;;;5795586;23;89449;-76
2022/05/28 03:03:59;;;;;;;3.55;0.30;;;14.60;92.20;;;;;;4892368;28;89090;-76
2022/05/28 03:06:26;;;;;;;2.78;0.20;;;14.70;92.60;;;;;;4918598;28;87042;-77
2022/05/28 03:08:52;;;;;;;1.00;0.20;;;14.80;92.20;;;;;;4919046;28;86930;-77
2022/05/28 03:11:18;;;;;;;2.00;0.20;;;14.90;92.10;;;;;;4919537;28;87337;-78
2022/05/28 03:13:45;;;;;;;2.67;0.30;;;15.00;91.60;;;;;;4921026;28;87087;-79
2022/05/28 03:16:11;;;;;;;0.63;0.13;;;15.00;91.60;;;;;;4918054;28;87055;-78
2022/05/28 03:18:37;;;;;;;2.22;0.22;;;15.00;91.40;;;;;;4918260;28;87010;-78
2022/05/28 03:21:04;;;;;;;1.60;0.20;;;15.00;91.80;;;;;;4918340;28;88281;-79
2022/05/28 03:23:29;;;;;;;1.15;0.20;;;15.00;91.10;;;;;;4917839;28;87329;-79
2022/05/28 03:25:55;;;;;;;0.93;0.30;;;15.00;91.60;;;;;;4917538;28;87008;-77
2022/05/28 03:28:21;;;;;;;3.53;0.20;;;15.00;90.80;;;;;;4920937;28;86901;-77
2022/05/28 03:30:47;;;;;;;1.60;0.40;;;14.80;91.40;;;;;;4902119;28;89394;-79
2022/05/28 03:33:12;;;;;;;2.80;0.40;;;14.70;91.60;;;;;;4910335;28;87117;-79
2022/05/28 03:35:40;;;;;;;1.13;0.30;;;14.70;91.80;;;;;;4917515;28;89113;-78
2022/05/28 03:38:06;;;;;;;1.60;0.32;;;14.80;91.50;;;;;;4921429;28;86339;-78
2022/05/28 03:40:32;;;;;;;1.30;0.20;;;14.70;91.50;;;;;;4921840;28;87058;-78
2022/05/28 03:42:58;;;;;;;2.63;0.30;;;14.60;92.20;;;;;;4922081;28;87103;-77
2022/05/28 03:45:26;;;;;;;2.65;0.30;;;14.40;92.70;;;;;;4919176;28;88026;-78
2022/05/28 03:47:52;;;;;;;2.83;0.40;;;14.50;92.80;;;;;;4921739;28;86841;-78
2022/05/28 03:50:18;;;;;;;4.13;0.30;;;14.60;92.80;;;;;;4921867;28;86991;-78
2022/05/28 03:52:44;;;;;;;3.55;0.30;;;14.50;93.10;;;;;;4921537;28;86737;-78
2022/05/28 03:55:10;;;;;;;2.17;0.30;;;14.20;93.70;;;;;;4923078;28;87549;-80
2022/05/28 03:57:35;;;;;;;1.27;0.20;;;14.20;94.10;;;;;;4923419;28;86861;-79
2022/05/28 04:00:03;;;;;;;1.10;0.20;;;14.20;94.40;;;;;;4906090;28;89356;-80
2022/05/28 04:02:29;;;;;;;4.15;0.30;;;14.30;94.40;;;;;;4918281;28;86624;-80
2022/05/28 04:04:54;;;;;;;1.65;0.38;;;14.20;94.50;;;;;;4912463;28;87040;-78
2022/05/28 04:07:20;;;;;;;1.60;0.20;;;14.30;94.50;;;;;;4912333;28;87198;-77
2022/05/28 04:09:46;;;;;;;1.33;0.30;;;14.40;94.40;;;;;;4919471;28;89521;-77
2022/05/28 04:12:12;;;;;;;1.30;0.20;;;14.60;93.90;;;;;;4919444;28;87912;-77
2022/05/28 04:14:38;;;;;;;0.98;0.52;;;14.70;93.80;;;;;;4919077;28;87127;-80
2022/05/28 04:17:05;;;;;;;1.65;0.30;;;14.70;94.00;;;;;;4924770;28;86466;-78
2022/05/28 04:19:31;;;;;;;2.72;0.30;;;14.50;94.30;;;;;;4911867;28;87109;-79
2022/05/28 04:21:56;;;;;;;1.73;0.30;;;14.40;94.90;;;;;;4920920;28;87420;-80
2022/05/28 04:24:22;;;;;;;1.58;0.20;;;14.30;94.80;;;;;;4920316;28;86966;-79
2022/05/28 04:26:48;;;;;;;2.35;0.20;;;14.40;96.60;;;;;;4921253;28;86156;-80
2022/05/28 04:29:14;;;;;;;1.70;0.20;;;14.50;96.60;;;;;;4920507;28;87371;-79
2022/05/28 04:31:39;;;;;;;1.52;0.40;;;14.70;96.30;;;;;;4919566;28;87138;-80
2022/05/28 04:34:05;;;;;;;3.40;0.20;;;14.80;96.00;;;;;;4920542;28;87944;-78
2022/05/28 04:36:31;;;;;;;1.10;0.30;;;14.80;95.70;;;;;;4913801;28;87023;-79
2022/05/28 04:38:56;;;;;;;1.88;0.40;;;14.80;96.40;;;;;;4911098;28;87389;-79
2022/05/28 04:41:22;;;;;;;1.15;0.35;;;14.80;97.20;;;;;;4922028;28;87496;-79
2022/05/28 04:43:48;;;;;;;1.17;0.35;;;14.80;97.30;;;;;;4922571;28;87137;-79
2022/05/28 04:46:13;;;;;;;1.63;0.30;;;14.90;97.20;;;;;;4917429;28;88700;-79
2022/05/28 04:48:39;;;;;;;1.52;0.30;;;14.80;98.10;;;;;;4910076;28;87900;-80
2022/05/28 04:51:05;;;;;;;3.78;0.38;;;14.70;98.90;;;;;;4922493;28;87749;-79
2022/05/28 04:53:30;;;;;;;1.60;0.47;;;14.60;98.70;;;;;;4920015;28;87125;-77
2022/05/28 04:55:56;;;;;;;1.50;0.43;;;14.60;99.90;;;;;;4925066;28;86914;-80
2022/05/28 04:58:22;;;;;;;1.15;0.32;;;14.60;99.90;;;;;;4916038;28;88086;-77
2022/05/28 05:00:48;;;;;;;3.28;0.45;;;14.70;99.90;;;;;;4916909;28;88035;-80
2022/05/28 05:03:14;;;;;;;2.35;0.30;;;14.70;99.90;;;;;;4920641;28;86883;-79
2022/05/28 05:05:40;;;;;;;1.58;0.22;;;14.70;99.90;;;;;;4909816;28;89042;-79
2022/05/28 05:08:06;;;;;;;3.95;0.38;;;14.80;99.90;;;;;;4916949;28;87361;-79
2022/05/28 05:10:32;;;;;;;1.10;0.30;;;14.80;99.90;;;;;;4910939;28;87484;-81
2022/05/28 05:13:01;;;;;;;1.48;0.32;;;14.80;99.80;;;;;;4919954;28;86622;-79
2022/05/28 05:15:27;;;;;;;1.35;0.30;;;14.70;99.90;;;;;;4914494;28;86244;-78
2022/05/28 05:17:53;;;;;;;2.35;0.50;;;14.60;99.90;;;;;;4917537;28;87071;-78
2022/05/28 05:20:19;;;;;;;1.58;0.32;;;14.70;99.90;;;;;;4917037;28;87205;-78
2022/05/28 05:22:44;;;;;;;1.80;0.40;;;14.60;99.90;;;;;;4917493;28;88355;-78
2022/05/28 05:25:12;;;;;;;1.65;0.40;;;14.70;99.90;;;;;;4920993;28;87066;-78
2022/05/28 05:27:38;;;;;;;2.10;0.50;;;14.70;99.90;;;;;;4923285;28;88469;-78
2022/05/28 05:30:05;;;;;;;2.05;0.40;;;14.70;99.90;;;;;;4927065;28;87133;-77
2022/05/28 05:32:31;;;;;;;3.47;0.68;;;14.80;99.90;;;;;;4921024;28;88222;-77
2022/05/28 05:34:57;;;;;;;2.22;0.60;;;14.80;99.90;;;;;;4917566;28;87446;-77
2022/05/28 05:37:23;;;;;;;2.85;0.65;;;14.80;99.90;;;;;;4920284;28;87409;-77
2022/05/28 05:39:49;;;;;;;2.92;0.32;;;14.70;99.90;;;;;;4924025;28;86141;-77
2022/05/28 05:42:14;;;;;;;3.10;0.60;;;14.80;99.90;;;;;;4921886;28;86950;-77
2022/05/28 05:44:40;;;;;;;3.00;0.43;;;14.80;99.90;;;;;;4918901;28;87336;-77
2022/05/28 05:47:07;;;;;;;2.53;0.50;;;14.60;99.90;;;;;;4928501;28;87912;-78
2022/05/28 05:49:33;;;;;;;3.10;0.60;;;14.40;99.90;;;;;;4915143;28;88243;-78
2022/05/28 05:51:59;;;;;;;4.32;0.40;;;14.50;99.90;;;;;;4917306;28;87681;-78
2022/05/28 05:54:25;;;;;;;2.50;0.68;;;14.70;99.90;;;;;;4920456;28;87131;-77
2022/05/28 05:56:52;;;;;;;1.80;0.43;;;14.80;99.90;;;;;;4928062;28;87698;-78
2022/05/28 05:59:17;;;;;;;1.83;0.52;;;14.90;99.90;;;;;;4917399;28;87094;-79
2022/05/28 06:01:43;;;;;;;3.05;0.40;;;14.90;99.90;;;;;;4906978;28;87018;-78
2022/05/28 06:04:09;;;;;;;2.53;0.60;;;14.90;99.50;;;;;;4919197;28;86362;-78
2022/05/28 06:06:35;;;;;;;2.13;0.50;;;14.90;99.30;;;;;;4921085;28;86907;-78
2022/05/28 06:09:00;;;;;;;3.50;0.73;;;15.00;99.10;;;;;;4919287;28;88378;-77
2022/05/28 06:11:26;;;;;;;3.20;0.52;;;15.10;99.90;;;;;;4923111;28;87984;-77
2022/05/28 06:13:52;;;;;;;3.33;0.93;;;15.10;97.40;;;;;;4919557;28;87017;-77
2022/05/28 06:16:17;;;;;;;2.75;0.73;;;15.20;97.60;;;;;;4916511;28;87562;-77
2022/05/28 06:18:43;;;;;;;2.13;0.70;;;15.20;98.10;;;;;;4919755;28;87521;-78
2022/05/28 06:21:09;;;;;;;3.15;0.57;;;15.30;98.80;;;;;;4919769;28;87034;-77
2022/05/28 06:23:35;;;;;;;4.43;0.73;;;15.40;97.20;;;;;;4917660;28;87172;-77
2022/05/28 06:26:03;;;;;;;2.35;0.77;;;15.50;95.60;;;;;;4918434;28;88540;-77
2022/05/28 06:28:30;;;;;;;3.17;1.00;;;15.40;95.30;;;;;;4920335;28;87133;-79
2022/05/28 06:31:03;;;;;;;3.17;0.77;;;15.60;97.10;;;;;;4916452;28;87088;-77
2022/05/28 06:33:28;;;;;;;2.70;0.40;;;15.80;95.20;;;;;;4917038;28;86966;-79
2022/05/28 06:35:59;;;;;;;5.00;0.80;;;16.00;94.70;;;;;;4916431;28;89030;-78
2022/05/28 06:38:26;;;;;;;2.67;0.70;;;16.00;93.50;;;;;;4918395;28;87305;-78
2022/05/28 06:40:52;;;;;;;2.17;0.70;;;16.00;93.70;;;;;;4918791;28;87543;-78
2022/05/28 06:43:18;;;;;;;3.47;0.82;;;16.10;93.60;;;;;;4917287;28;87110;-78
2022/05/28 06:45:44;;;;;;;2.88;0.60;;;16.10;93.10;;;;;;4916544;28;87532;-78
2022/05/28 06:48:10;;;;;;;3.97;0.80;;;16.10;92.30;;;;;;4906718;28;87369;-78
2022/05/28 06:53:21;;;;;;;4.35;0.77;;;16.20;92.60;;;;;;4917700;28;86204;-78
2022/05/28 06:55:48;;;;;;;3.67;0.70;;;16.10;90.40;;;;;;4917389;28;87073;-77
2022/05/28 06:58:14;;;;;;;5.60;0.80;;;16.10;89.30;;;;;;4915738;28;87009;-78
2022/05/28 07:00:40;;;;;;;4.00;0.63;;;16.30;89.60;;;;;;4917501;28;88217;-78
2022/05/28 07:03:11;;;;;;;3.53;0.75;;;16.50;90.00;;;;;;4920000;28;86373;-78
2022/05/28 07:05:37;;;;;;;5.38;1.27;;;16.70;84.90;;;;;;4921425;28;87239;-78
2022/05/28 07:08:03;;;;;;;8.15;0.98;;;16.70;85.10;;;;;;4921156;28;86942;-79
2022/05/28 07:10:28;;;;;;;6.70;1.20;;;16.80;83.40;;;;;;4922518;28;87362;-78
2022/05/28 07:12:54;;;;;;;10.57;1.42;;;16.90;84.60;;;;;;4922145;28;87060;-78
2022/05/28 07:15:20;;;;;;;3.88;0.90;;;17.20;85.60;;;;;;4921765;28;87737;-78
2022/05/28 07:17:45;;;;;;;3.63;0.75;;;17.60;82.00;;;;;;4922062;28;87124;-78
2022/05/28 07:20:11;;;;;;;2.58;0.73;;;18.00;81.80;;;;;;4904154;28;87272;-78
2022/05/28 07:22:37;;;;;;;4.20;0.93;;;18.10;80.40;;;;;;4919779;28;87291;-78
2022/05/28 07:25:04;;;;;;;7.78;0.82;;;18.20;81.50;;;;;;4920890;28;88811;-78
2022/05/28 07:27:29;;;;;;;2.80;0.80;;;18.10;77.20;;;;;;4921998;28;87394;-78
2022/05/28 07:29:56;;;;;;;4.18;1.00;;;18.10;77.60;;;;;;4921832;28;86823;-79
2022/05/28 07:32:24;;;;;;;3.83;1.00;;;18.20;78.30;;;;;;4921728;28;87089;-77
2022/05/28 07:34:51;;;;;;;6.75;1.23;;;18.10;75.10;;;;;;4921626;28;87601;-78
2022/05/28 07:37:17;;;;;;;4.22;1.15;;;17.90;78.20;;;;;;4921055;28;87596;-79
2022/05/28 07:39:43;;;;;;;6.35;1.35;;;18.10;80.00;;;;;;4904503;28;87067;-78
2022/05/28 07:42:09;;;;;;;4.47;0.80;;;18.50;75.50;;;;;;4921359;28;86313;-79
2022/05/28 07:44:35;;;;;;;4.43;0.70;;;19.40;75.50;;;;;;4921364;28;87117;-79
2022/05/28 07:47:05;;;;;;;2.80;0.90;;;21.00;73.30;;;;;;4921035;28;87080;-78
2022/05/28 07:49:31;;;;;;;5.40;0.80;;;22.00;68.20;;;;;;4921145;28;88024;-79
2022/05/28 07:51:57;;;;;;;2.47;1.00;;;21.80;66.10;;;;;;4921298;28;87219;-78
2022/05/28 07:54:22;;;;;;;3.58;1.05;;;22.20;64.50;;;;;;4920997;28;87025;-79
2022/05/28 07:56:48;;;;;;;3.47;0.93;;;22.40;60.80;;;;;;4920965;28;87129;-78
2022/05/28 07:59:14;;;;;;;6.68;1.08;;;21.80;61.50;;;;;;4921215;28;87420;-79
2022/05/28 08:01:40;;;;;;;2.60;0.85;;;21.10;62.10;;;;;;4903370;28;86921;-78
2022/05/28 08:04:06;;;;;;;4.70;0.85;;;20.60;64.80;;;;;;4920834;28;87155;-78
2022/05/28 08:06:32;;;;;;;2.40;0.60;;;20.70;64.70;;;;;;4921206;28;88495;-79
2022/05/28 08:08:59;;;;;;;4.47;0.98;;;21.50;62.50;;;;;;4901098;28;87207;-79
2022/05/28 08:11:25;;;;;;;2.97;1.45;;;25.10;59.10;;;;;;4921207;28;86994;-76
2022/05/28 08:13:52;;;;;;;3.60;1.40;;;30.10;51.80;;;;;;4921787;28;88513;-79
2022/05/28 08:16:18;;;;;;;2.80;1.55;;;34.10;43.50;;;;;;4922359;28;87647;-79
2022/05/28 08:18:44;;;;;;;3.92;1.23;;;34.80;41.50;;;;;;4921207;28;87203;-79
2022/05/28 08:23:54;;;;;;;5.68;1.83;;;34.40;36.50;;;;;;4922440;28;87334;-79
2022/05/28 08:26:20;;;;;;;3.55;1.60;;;31.60;40.50;;;;;;4922396;28;88933;-79
2022/05/28 08:28:49;;;;;;;3.65;1.80;;;28.80;43.30;;;;;;4922301;28;86944;-79
2022/05/28 08:31:15;;;;;;;3.33;1.35;;;26.70;46.00;;;;;;4921810;28;86193;-79
2022/05/28 08:33:42;;;;;;;3.05;0.90;;;25.20;48.90;;;;;;4921300;28;86933;-78
2022/05/28 08:36:08;;;;;;;4.45;1.58;;;24.30;53.10;;;;;;4920741;28;87146;-79
2022/05/28 08:38:34;;;;;;;4.00;1.23;;;23.60;53.80;;;;;;4920357;28;87862;-78
2022/05/28 08:41:06;;;;;;;4.00;1.25;;;22.30;52.90;;;;;;4921218;28;86978;-78
2022/05/28 08:43:38;;;;;;;4.25;1.25;;;22.30;55.30;;;;;;4921220;28;88845;-78
2022/05/28 08:46:07;;;;;;;5.13;1.83;;;22.60;55.80;;;;;;4911462;28;87050;-79
2022/05/28 08:48:49;;;;;;;3.90;1.23;;;22.60;55.60;;;;;;4916776;28;86579;-79
2022/05/28 08:51:24;;;;;;;3.40;0.95;;;22.20;56.50;;;;;;4922639;28;87261;-76
2022/05/28 08:53:55;;;;;;;3.47;0.98;;;21.60;56.70;;;;;;4923746;28;88202;-77
2022/05/28 08:56:24;;;;;;;5.68;1.23;;;21.00;59.10;;;;;;4917445;28;87587;-79
2022/05/28 08:59:00;;;;;;;5.32;1.70;;;20.60;61.20;;;;;;4920662;28;87461;-78
2022/05/28 09:01:30;;;;;;;5.32;1.55;;;20.40;61.10;;;;;;4902497;28;87870;-78
2022/05/28 09:04:03;;;;;;;3.03;1.33;;;20.30;60.90;;;;;;4920258;28;88502;-79
2022/05/28 09:06:39;;;;;;;5.47;1.23;;;22.60;59.90;;;;;;4893706;28;92514;-79
2022/05/28 09:09:08;;;;;;;3.95;1.40;;;24.30;54.30;;;;;;4920020;28;86844;-79
2022/05/28 09:11:39;;;;;;;6.60;2.13;;;24.20;51.90;;;;;;4918969;28;87044;-79
2022/05/28 09:14:41;;;;;;;4.25;1.50;;;23.60;54.30;;;;;;4919186;28;88317;-79
2022/05/28 09:17:15;;;;;;;5.75;1.38;;;23.60;54.60;;;;;;4848154;29;88467;-78
2022/05/28 09:19:43;;;;;;;4.75;1.55;;;23.70;53.50;;;;;;4901651;28;87026;-79
2022/05/28 09:22:09;;;;;;;2.85;1.15;;;23.30;53.60;;;;;;4920412;28;86343;-78
2022/05/28 09:24:34;;;;;;;3.70;1.35;;;23.10;52.00;;;;;;4919003;28;87257;-79
2022/05/28 09:27:12;;;;;;;6.00;1.45;;;23.00;53.70;;;;;;4919990;28;86912;-79
2022/05/28 09:29:40;;;;;;;4.65;1.42;;;23.00;52.50;;;;;;4919720;28;88393;-79
2022/05/28 09:32:09;;;;;;;4.07;1.25;;;23.50;49.70;;;;;;4920093;28;86997;-78
2022/05/28 09:34:52;;;;;;;4.68;1.40;;;23.60;50.30;;;;;;4902781;28;88846;-78
2022/05/28 09:37:31;;;;;;;4.18;1.65;;;23.20;49.40;;;;;;4900508;28;87912;-78
2022/05/28 09:40:02;;;;;;;5.40;1.00;;;22.90;51.60;;;;;;4902077;28;87079;-77
2022/05/28 09:42:44;;;;;;;5.68;1.15;;;22.60;51.70;;;;;;4919702;28;86554;-78
2022/05/28 09:45:12;;;;;;;;;;;23.10;51.60;;;;;;4919779;28;87121;-78
2022/05/28 09:47:51;;;;;;;4.93;0.98;;;23.40;50.00;;;;;;4921627;28;88045;-79
2022/05/28 09:50:22;;;;;;;7.63;1.40;;;24.10;48.60;;;;;;4920718;28;86874;-79
2022/05/28 09:56:02;;;;;;;;;;;28.00;45.20;;;;;;4870060;28;88444;-79
2022/05/28 09:58:38;;;;;;;4.07;1.25;;;29.20;44.20;;;;;;4922385;28;87553;-79
2022/05/28 10:01:17;;;;;;;5.22;1.73;;;28.20;42.40;;;;;;4921410;28;87046;-78
2022/05/28 10:06:30;;;;;;;4.60;2.03;;;29.60;40.30;;;;;;4917546;28;87296;-78
2022/05/28 10:08:57;;;;;;;5.43;2.00;;;28.80;42.80;;;;;;4914793;28;87097;-78
2022/05/28 10:11:23;;;;;;;3.55;1.10;;;28.90;43.60;;;;;;4918483;28;87043;-79
2022/05/28 10:13:55;;;;;;;3.58;1.20;;;29.00;41.10;;;;;;4918079;28;86917;-78
2022/05/28 10:16:32;;;;;;;3.60;1.45;;;28.40;41.70;;;;;;4919416;28;88272;-79
2022/05/28 10:18:58;;;;;;;4.82;1.40;;;27.60;42.50;;;;;;4915639;28;87240;-79
2022/05/28 10:21:32;;;;;;;5.47;1.52;;;26.60;42.90;;;;;;4920847;28;88487;-79
2022/05/28 10:24:02;;;;;;;5.40;1.65;;;26.20;42.50;;;;;;4918177;28;86990;-78
2022/05/28 10:26:36;;;;;;;4.35;1.88;;;26.30;43.50;;;;;;4911411;28;87920;-79
2022/05/28 10:29:16;;;;;;;3.85;1.17;;;26.10;44.40;;;;;;4919194;28;88013;-78
2022/05/28 10:31:46;;;;;;;3.58;1.20;;;26.20;44.00;;;;;;4920042;28;86976;-79
2022/05/28 10:34:35;;;;;;;4.95;1.10;;;26.40;45.20;;;;;;4906675;28;86983;-78
2022/05/28 10:37:19;;;;;;;5.82;1.67;;;25.90;44.60;;;;;;4913174;28;87196;-79
2022/05/28 10:39:47;;;;;;;5.68;1.55;;;25.80;46.50;;;;;;4920375;28;86974;-78
2022/05/28 10:42:14;;;;;;;6.53;1.35;;;25.20;44.90;;;;;;4919720;28;86743;-78
2022/05/28 10:44:42;;;;;;;3.63;1.27;;;25.10;45.30;;;;;;4917306;28;87760;-79
2022/05/28 10:47:14;;;;;;;7.57;1.20;;;25.10;43.20;;;;;;4917923;28;88774;-78
2022/05/28 10:49:44;;;;;;;4.57;1.00;;;25.30;43.70;;;;;;4901272;28;91972;-78
2022/05/28 10:52:15;;;;;;;4.65;1.33;;;25.20;43.90;;;;;;4918705;28;87165;-79
2022/05/28 10:55:09;;;;;;;4.35;1.25;;;24.60;46.70;;;;;;4915730;28;87162;-79
2022/05/28 10:57:44;;;;;;;3.95;1.40;;;24.70;47.60;;;;;;4915709;28;88136;-78
2022/05/28 11:00:22;;;;;;;5.45;1.73;;;25.00;45.60;;;;;;4901434;28;90503;-79
2022/05/28 11:03:10;;;;;;;4.15;1.25;;;24.20;44.40;;;;;;4916085;28;86955;-78
2022/05/28 11:05:37;;;;;;;7.95;0.90;;;23.60;48.20;;;;;;4915897;28;86076;-78
2022/05/28 11:08:11;;;;;;;3.83;1.02;;;23.70;47.60;;;;;;4916377;28;87328;-78
2022/05/28 11:10:58;;;;;;;5.57;1.20;;;24.30;46.80;;;;;;4918509;28;88544;-78
2022/05/28 11:13:47;;;;;;;4.25;1.00;;;24.90;48.40;;;;;;4915574;28;87941;-78
2022/05/28 11:16:19;;;;;;;5.43;1.60;;;24.40;45.20;;;;;;4917697;28;87014;-78
2022/05/28 11:19:03;;;;;;;3.47;1.13;;;23.90;45.80;;;;;;4910774;28;87557;-78
2022/05/28 11:21:59;;;;;;;3.85;1.10;;;23.10;47.70;;;;;;4907857;28;86678;-79
2022/05/28 11:24:53;;;;;;;2.92;1.02;;;23.50;46.10;;;;;;4909596;28;87015;-78
2022/05/28 11:27:46;;;;;;;9.82;1.95;;;23.60;47.50;;;;;;4918508;28;86975;-80
2022/05/28 11:30:17;;;;;;;5.15;1.20;;;24.20;45.30;;;;;;4911048;28;87301;-79
2022/05/28 11:33:10;;;;;;;4.10;1.20;;;24.10;45.30;;;;;;4918410;28;86886;-80
2022/05/28 11:35:58;;;;;;;10.85;1.10;;;24.20;44.80;;;;;;4911743;28;86946;-78
2022/05/28 11:38:53;;;;;;;8.55;1.00;;;23.40;46.40;;;;;;4912039;28;86736;-78
2022/05/28 11:41:33;;;;;;;7.72;1.15;;;23.20;46.70;;;;;;4912656;28;88546;-78
2022/05/28 11:44:25;;;;;;;2.92;0.95;;;23.40;44.80;;;;;;4916166;28;87837;-78
2022/05/28 11:47:09;;;;;;;2.63;0.80;;;24.00;45.00;;;;;;4898954;28;88007;-78
2022/05/28 11:53:01;;;;;;;4.03;1.20;;;24.30;44.80;;;;;;4919966;28;87519;-78
2022/05/28 11:55:33;;;;;;;2.45;0.63;;;24.00;42.30;;;;;;4911281;28;87448;-79
2022/05/28 11:58:09;;;;;;;4.53;1.08;;;24.00;44.60;;;;;;4919753;28;87399;-79
2022/05/28 12:00:39;;;;;;;3.72;0.90;;;23.70;43.80;;;;;;4922357;28;86479;-79
2022/05/28 12:03:05;;;;;;;3.35;0.93;;;23.20;45.10;;;;;;4901814;28;88839;-78
2022/05/28 12:05:44;;;;;;;2.47;0.93;;;23.30;44.40;;;;;;4920069;28;86965;-79
2022/05/28 12:08:36;;;;;;;2.40;0.55;;;23.20;43.50;;;;;;4918822;28;87985;-79
2022/05/28 12:11:05;;;;;;;4.97;0.40;;;23.50;38.90;;;;;;4921086;28;86940;-78
2022/05/28 12:13:54;;;;;;;4.05;0.57;;;23.40;42.10;;;;;;4920496;28;87071;-80
2022/05/28 12:16:41;;;;;;;3.38;0.85;;;23.60;42.20;;;;;;4916220;28;87344;-79
2022/05/28 12:19:15;;;;;;;4.13;0.52;;;24.10;39.40;;;;;;4920807;28;86957;-77
2022/05/28 12:21:43;;;;;;;4.25;0.60;;;24.30;41.00;;;;;;4911559;28;86975;-77
2022/05/28 12:24:14;;;;;;;2.00;0.50;;;24.30;40.10;;;;;;4920118;28;87853;-77
2022/05/28 12:26:55;;;;;;;3.38;0.65;;;24.10;38.60;;;;;;4919047;28;87582;-78
2022/05/28 12:29:33;;;;;;;1.90;0.63;;;23.70;43.50;;;;;;4919161;28;87162;-79
2022/05/28 12:32:14;;;;;;;2.35;0.82;;;23.00;40.50;;;;;;4920897;28;86955;-79
2022/05/28 12:34:54;;;;;;;4.63;1.10;;;23.10;44.70;;;;;;4915803;28;88655;-77
2022/05/28 12:37:31;;;;;;;4.15;1.00;;;23.10;43.20;;;;;;4910409;28;87906;-79
2022/05/28 12:40:02;;;;;;;2.85;0.77;;;22.90;43.80;;;;;;4891666;28;87278;-79
2022/05/28 12:42:33;;;;;;;4.63;1.13;;;23.20;47.10;;;;;;4921047;28;87053;-79
2022/05/28 12:45:13;;;;;;;4.40;0.80;;;23.50;45.60;;;;;;4914778;28;87423;-79
2022/05/28 12:47:39;;;;;;;5.38;1.15;;;23.30;47.30;;;;;;4912681;28;86982;-76
2022/05/28 12:50:26;;;;;;;3.22;0.93;;;23.30;45.70;;;;;;4919982;28;87038;-79
2022/05/28 12:53:10;;;;;;;4.00;0.95;;;23.80;48.00;;;;;;4899074;28;86713;-80
2022/05/28 12:55:39;;;;;;;7.80;1.02;;;23.50;47.70;;;;;;4915107;28;87877;-79
2022/05/28 12:58:09;;;;;;;3.53;0.80;;;23.50;48.80;;;;;;4919071;28;87408;-79
2022/05/28 13:00:47;;;;;;;7.50;1.23;;;23.60;48.30;;;;;;4909789;28;88243;-77
2022/05/28 13:03:16;;;;;;;5.07;0.90;;;23.60;46.60;;;;;;4919752;28;87358;-77
2022/05/28 13:05:48;;;;;;;5.38;1.25;;;23.50;48.50;;;;;;4907330;28;86939;-79
2022/05/28 13:08:27;;;;;;;6.47;1.13;;;23.60;47.50;;;;;;4916946;28;87246;-79
2022/05/28 13:10:55;;;;;;;2.83;0.73;;;23.50;45.50;;;;;;4916729;28;86655;-79
2022/05/28 13:13:38;;;;;;;4.45;0.95;;;23.70;48.00;;;;;;4918792;28;86886;-79
2022/05/28 13:16:41;;;;;;;3.42;0.80;;;23.10;47.80;;;;;;4916977;28;87440;-79
2022/05/28 13:19:34;;;;;;;3.13;0.77;;;23.40;48.50;;;;;;4907879;28;88010;-79
2022/05/28 13:22:20;;;;;;;4.15;1.10;;;23.10;47.10;;;;;;4906197;28;86997;-79
2022/05/28 13:24:55;;;;;;;4.18;0.85;;;22.80;47.70;;;;;;4915193;28;86948;-80
2022/05/28 13:27:46;;;;;;;5.00;0.55;;;23.10;49.70;;;;;;4917198;28;89079;-79
2022/05/28 13:30:27;;;;;;;4.13;0.82;;;23.20;46.30;;;;;;4891051;28;87169;-79
2022/05/28 13:33:00;;;;;;;5.80;0.75;;;22.70;47.00;;;;;;4917855;28;86501;-79
2022/05/28 13:35:26;;;;;;;3.15;0.75;;;23.00;49.60;;;;;;4915265;28;86910;-80
2022/05/28 13:37:59;;;;;;;2.80;0.70;;;23.40;48.00;;;;;;4919395;28;87905;-78
2022/05/28 13:40:27;;;;;;;4.28;0.80;;;23.50;47.90;;;;;;4917263;28;87462;-80
2022/05/28 13:42:56;;;;;;;3.83;0.70;;;23.50;46.10;;;;;;4920930;28;87445;-79
2022/05/28 13:45:25;;;;;;;3.67;0.80;;;23.30;46.30;;;;;;4902289;28;86443;-79
2022/05/28 13:47:51;;;;;;;3.28;0.93;;;23.30;47.80;;;;;;4914853;28;87357;-78
2022/05/28 13:50:25;;;;;;;3.70;0.68;;;23.20;47.40;;;;;;4916989;28;87488;-79
2022/05/28 13:52:51;;;;;;;4.40;1.02;;;23.20;47.80;;;;;;4917492;28;87948;-80
2022/05/28 13:55:23;;;;;;;4.30;0.82;;;23.20;47.00;;;;;;4919999;28;88063;-80
2022/05/28 13:57:50;;;;;;;5.20;0.93;;;23.20;46.70;;;;;;4918322;28;88924;-80
2022/05/28 14:00:26;;;;;;;3.38;0.70;;;23.20;46.70;;;;;;4919363;28;86601;-79
2022/05/28 14:03:04;;;;;;;3.40;0.50;;;23.20;47.70;;;;;;4916606;28;87062;-79
2022/05/28 14:05:35;;;;;;;3.78;0.73;;;23.70;47.10;;;;;;4902823;28;86983;-79
2022/05/28 14:08:12;;;;;;;3.05;0.68;;;23.60;45.40;;;;;;4920222;28;87780;-79
2022/05/28 14:10:40;;;;;;;3.75;0.50;;;23.50;45.80;;;;;;4898074;28;89160;-79
2022/05/28 14:13:16;;;;;;;5.05;0.80;;;23.40;47.20;;;;;;4918616;28;87673;-79
2022/05/28 14:15:48;;;;;;;;;;;23.20;45.80;;;;;;4919723;28;87021;-79
2022/05/28 14:18:21;;;;;;;4.65;0.50;;;23.10;47.30;;;;;;4918842;28;87895;-80
2022/05/28 14:20:47;;;;;;;3.15;0.63;;;23.40;45.40;;;;;;4918423;28;88510;-79
2022/05/28 14:23:24;;;;;;;3.67;0.47;;;23.30;47.60;;;;;;4901688;28;86985;-79
2022/05/28 14:25:52;;;;;;;1.88;0.60;;;23.30;46.90;;;;;;4891183;28;87236;-79
2022/05/28 14:28:19;;;;;;;4.50;0.85;;;23.50;45.80;;;;;;4918540;28;86955;-80
2022/05/28 14:30:45;;;;;;;3.35;0.90;;;23.60;44.60;;;;;;4914465;28;86793;-79
2022/05/28 14:33:26;;;;;;;2.70;0.73;;;23.80;44.40;;;;;;4912413;28;86963;-79
2022/05/28 14:35:52;;;;;;;7.72;0.88;;;23.90;45.00;;;;;;4913224;28;86209;-79
2022/05/28 14:38:27;;;;;;;5.25;0.68;;;23.70;45.70;;;;;;4917792;28;87029;-79
2022/05/28 14:40:54;;;;;;;7.38;0.88;;;23.30;48.50;;;;;;4920058;28;87095;-79
2022/05/28 14:43:30;;;;;;;7.10;0.70;;;23.20;43.80;;;;;;4917853;28;89209;-79
2022/05/28 14:46:21;;;;;;;2.92;0.47;;;23.00;44.70;;;;;;4911946;28;87084;-80
2022/05/28 14:48:53;;;;;;;2.65;0.70;;;22.40;46.50;;;;;;4916069;28;87781;-79
2022/05/28 14:51:20;;;;;;;4.85;0.85;;;22.10;45.90;;;;;;4919848;28;87177;-79
2022/05/28 14:53:50;;;;;;;3.85;0.60;;;21.80;47.40;;;;;;4919914;28;86894;-80
2022/05/28 14:56:32;;;;;;;4.28;0.55;;;21.80;48.60;;;;;;4917834;28;86975;-80
2022/05/28 14:58:58;;;;;;;4.35;0.50;;;21.90;47.90;;;;;;4900770;28;88678;-79
2022/05/28 15:01:35;;;;;;;5.60;0.60;;;21.90;47.50;;;;;;4915858;28;86641;-79
2022/05/28 15:04:13;;;;;;;3.05;0.55;;;22.00;47.90;;;;;;4917672;28;87423;-79
2022/05/28 15:06:58;;;;;;;2.67;0.60;;;21.50;45.40;;;;;;4917996;28;86656;-79
2022/05/28 15:09:26;;;;;;;2.42;0.40;;;21.00;47.90;;;;;;4914566;28;88004;-80
2022/05/28 15:12:13;;;;;;;3.67;0.50;;;21.00;48.00;;;;;;4921252;28;88019;-79
2022/05/28 15:14:40;;;;;;;4.28;0.73;;;21.00;48.20;;;;;;4911114;28;87007;-79
2022/05/28 15:17:06;;;;;;;4.53;0.50;;;21.10;48.80;;;;;;4898418;28;87089;-79
2022/05/28 15:19:32;;;;;;;5.68;0.63;;;21.00;47.70;;;;;;4917587;28;87656;-78
2022/05/28 15:22:28;;;;;;;3.92;0.70;;;20.90;47.40;;;;;;4917589;28;87440;-79
2022/05/28 15:24:55;;;;;;;4.85;0.45;;;20.70;45.60;;;;;;4901804;28;87039;-79
2022/05/28 15:27:21;;;;;;;3.00;0.52;;;20.80;46.50;;;;;;4922404;28;86077;-79
2022/05/28 15:29:48;;;;;;;5.03;0.40;;;20.90;47.50;;;;;;4920767;28;88800;-78
2022/05/28 15:32:23;;;;;;;4.13;0.43;;;21.10;49.50;;;;;;4920326;28;88031;-79
2022/05/28 15:34:51;;;;;;;6.47;0.57;;;21.10;49.10;;;;;;4917671;28;87912;-78
2022/05/28 15:40:01;;;;;;;3.00;0.40;;;21.10;48.70;;;;;;4921597;28;86731;-78
2022/05/28 15:42:32;;;;;;;3.88;0.50;;;21.10;49.40;;;;;;4914766;28;87528;-78
2022/05/28 15:45:03;;;;;;;2.33;0.47;;;21.20;46.90;;;;;;4916202;28;86783;-78
2022/05/28 15:47:29;;;;;;;5.88;0.55;;;21.20;47.80;;;;;;4920593;28;86875;-79
2022/05/28 15:49:55;;;;;;;3.25;0.60;;;21.00;48.20;;;;;;4918271;28;87600;-80
2022/05/28 15:52:21;;;;;;;6.70;0.55;;;21.00;48.90;;;;;;4921203;28;87488;-78
2022/05/28 15:54:46;;;;;;;4.38;0.40;;;20.90;50.90;;;;;;4920334;28;87150;-79
2022/05/28 15:57:12;;;;;;;2.53;0.30;;;20.90;50.10;;;;;;4921140;28;86798;-78
2022/05/28 15:59:38;;;;;;;3.63;0.50;;;20.80;48.80;;;;;;4917321;28;88294;-79
2022/05/28 16:02:10;;;;;;;1.08;0.10;;;20.70;47.80;;;;;;4919937;28;89289;-78
2022/05/28 16:04:36;;;;;;;2.38;0.30;;;20.50;44.10;;;;;;4921354;28;86794;-78
2022/05/28 16:07:04;;;;;;;1.95;0.43;;;20.00;45.30;;;;;;4920032;28;87332;-79
2022/05/28 16:09:29;;;;;;;3.65;0.20;;;19.80;45.80;;;;;;4918653;28;88363;-79
2022/05/28 16:11:55;;;;;;;1.40;0.20;;;19.70;46.70;;;;;;4919641;28;87091;-79
2022/05/28 16:14:28;;;;;;;2.60;0.20;;;19.50;46.70;;;;;;4920832;28;88831;-78
2022/05/28 16:16:56;;;;;;;2.65;0.30;;;19.20;48.80;;;;;;4920415;28;86310;-78
2022/05/28 16:19:21;;;;;;;2.15;0.28;;;19.20;50.00;;;;;;4915791;28;88671;-79
2022/05/28 16:21:47;;;;;;;3.15;0.22;;;19.30;48.40;;;;;;4917092;28;87979;-78
2022/05/28 16:24:13;;;;;;;3.47;0.30;;;19.20;48.30;;;;;;4916563;28;87862;-79